createdAt,value
2023-04-27T00:00:01.662Z,11.10
2023-04-27T00:01:01.530Z,8.80
2023-04-27T00:02:01.590Z,10.80
2023-04-27T00:03:01.928Z,12.90
2023-04-27T00:04:01.701Z,13.30
2023-04-27T00:05:01.699Z,9.50
2023-04-27T00:06:01.551Z,12.70
2023-04-27T00:07:01.531Z,10.70
2023-04-27T00:08:01.499Z,6.70
2023-04-27T00:09:01.544Z,9.30
2023-04-27T00:10:01.459Z,9.90
2023-04-27T00:11:01.590Z,8.90
2023-04-27T00:12:01.478Z,10.60
2023-04-27T00:13:01.417Z,9.30
2023-04-27T00:14:01.479Z,10.10
2023-04-27T00:15:01.395Z,11.00
2023-04-27T00:16:01.446Z,9.90
2023-04-27T00:17:01.437Z,9.40
2023-04-27T00:18:01.603Z,10.30
2023-04-27T00:19:01.403Z,11.00
2023-04-27T00:20:01.415Z,9.30
2023-04-27T00:21:01.388Z,9.60
2023-04-27T00:22:01.381Z,9.90
2023-04-27T00:23:01.316Z,10.60
2023-04-27T00:24:01.330Z,9.30
2023-04-27T00:25:01.334Z,11.40
2023-04-27T00:26:01.303Z,8.70
2023-04-27T00:27:01.289Z,8.80
2023-04-27T00:28:01.356Z,9.60
2023-04-27T00:29:01.289Z,11.70
2023-04-27T00:30:01.305Z,10.40
2023-04-27T00:31:01.237Z,12.50
2023-04-27T00:32:01.265Z,9.60
2023-04-27T00:33:01.287Z,11.30
2023-04-27T00:34:01.241Z,9.80
2023-04-27T00:35:01.212Z,12.60
2023-04-27T00:36:01.190Z,8.90
2023-04-27T00:37:01.239Z,8.40
2023-04-27T00:38:01.233Z,11.60
2023-04-27T00:39:01.276Z,8.20
2023-04-27T00:40:01.135Z,11.40
2023-04-27T00:41:01.147Z,8.40
2023-04-27T00:42:01.126Z,10.30
2023-04-27T00:43:01.160Z,11.50
2023-04-27T00:44:01.113Z,11.80
2023-04-27T00:45:01.194Z,10.10
2023-04-27T00:46:01.182Z,9.30
2023-04-27T00:47:01.088Z,9.70
2023-04-27T00:48:01.188Z,10.70
2023-04-27T00:49:01.053Z,10.00
2023-04-27T00:50:01.131Z,11.90
2023-04-27T00:51:01.035Z,9.90
2023-04-27T00:52:01.031Z,9.70
2023-04-27T00:53:01.004Z,8.80
2023-04-27T00:54:01.026Z,10.90
2023-04-27T00:55:01.021Z,9.90
2023-04-27T00:56:01.033Z,9.00
2023-04-27T00:57:01.007Z,12.20
2023-04-27T00:58:00.948Z,11.30
2023-04-27T00:59:00.959Z,10.10
2023-04-27T01:00:01.058Z,9.70
2023-04-27T01:01:00.966Z,10.10
2023-04-27T01:02:01.001Z,10.00
2023-04-27T01:03:01.115Z,9.10
2023-04-27T01:04:01.141Z,11.20
2023-04-27T01:05:00.872Z,9.00
2023-04-27T01:06:00.917Z,10.90
2023-04-27T01:07:00.901Z,10.40
2023-04-27T01:08:00.908Z,13.60
2023-04-27T01:09:00.834Z,11.20
2023-04-27T01:10:00.861Z,8.10
2023-04-27T01:11:00.821Z,11.60
2023-04-27T01:12:00.862Z,9.90
2023-04-27T01:13:00.852Z,11.00
2023-04-27T01:14:00.821Z,8.90
2023-04-27T01:15:00.817Z,9.60
2023-04-27T01:16:00.815Z,10.50
2023-04-27T01:17:00.797Z,9.10
2023-04-27T01:18:00.853Z,9.60
2023-04-27T01:19:00.795Z,12.20
2023-04-27T01:20:00.810Z,10.40
2023-04-27T01:21:00.765Z,12.10
2023-04-27T01:22:00.777Z,13.20
2023-04-27T01:23:00.754Z,11.80
2023-04-27T01:24:00.730Z,10.60
2023-04-27T01:25:00.679Z,11.30
2023-04-27T01:26:00.731Z,11.00
2023-04-27T01:27:00.759Z,11.00
2023-04-27T01:28:00.709Z,11.00
2023-04-27T01:29:00.663Z,13.40
2023-04-27T01:30:00.736Z,13.00
2023-04-27T01:31:00.677Z,13.40
2023-04-27T01:32:01.601Z,13.60
2023-04-27T01:33:00.681Z,10.90
2023-04-27T01:34:00.631Z,12.10
2023-04-27T01:35:00.654Z,15.80
2023-04-27T01:36:00.643Z,13.90
2023-04-27T01:37:00.669Z,13.50
2023-04-27T01:38:00.570Z,11.80
2023-04-27T01:39:00.553Z,14.90
2023-04-27T01:40:00.801Z,14.20
2023-04-27T01:41:00.506Z,11.20
2023-04-27T01:42:00.742Z,11.80
2023-04-27T01:43:00.632Z,13.50
2023-04-27T01:44:00.506Z,10.50
2023-04-27T01:45:00.512Z,12.40
2023-04-27T01:46:00.681Z,13.50
2023-04-27T01:47:00.482Z,20.30
2023-04-27T01:48:00.477Z,17.20
2023-04-27T01:49:00.519Z,13.90
2023-04-27T01:50:00.461Z,13.20
2023-04-27T01:51:00.458Z,14.30
2023-04-27T01:52:00.415Z,10.60
2023-04-27T01:53:00.391Z,16.30
2023-04-27T01:54:00.507Z,14.60
2023-04-27T01:55:00.427Z,14.40
2023-04-27T01:56:00.488Z,10.80
2023-04-27T01:57:00.455Z,13.10
2023-04-27T01:58:00.388Z,11.90
2023-04-27T01:59:00.366Z,15.10
2023-04-27T02:00:00.378Z,12.00
2023-04-27T02:01:00.365Z,13.10
2023-04-27T02:02:00.466Z,13.10
2023-04-27T02:03:00.550Z,11.10
2023-04-27T02:04:00.670Z,13.20
2023-04-27T02:05:00.312Z,11.00
2023-04-27T02:06:00.288Z,12.60
2023-04-27T02:07:00.330Z,13.10
2023-04-27T02:08:00.321Z,11.10
2023-04-27T02:09:00.277Z,13.10
2023-04-27T02:10:00.288Z,13.20
2023-04-27T02:11:00.217Z,13.90
2023-04-27T02:12:00.221Z,11.80
2023-04-27T02:13:00.179Z,10.90
2023-04-27T02:14:00.282Z,10.70
2023-04-27T02:15:00.198Z,13.40
2023-04-27T02:16:00.220Z,12.90
2023-04-27T02:17:00.157Z,15.60
2023-04-27T02:18:00.300Z,12.60
2023-04-27T02:19:00.159Z,13.90
2023-04-27T02:20:00.202Z,11.10
2023-04-27T02:21:00.131Z,13.00
2023-04-27T02:22:00.157Z,13.80
2023-04-27T02:23:00.143Z,12.50
2023-04-27T02:24:00.143Z,11.40
2023-04-27T02:25:00.068Z,12.30
2023-04-27T02:26:00.056Z,13.90
2023-04-27T02:27:00.354Z,13.00
2023-04-27T02:28:00.105Z,14.60
2023-04-27T02:29:00.039Z,12.40
2023-04-27T02:30:00.034Z,10.80
2023-04-27T02:30:59.993Z,13.40
2023-04-27T02:32:00.256Z,13.70
2023-04-27T02:33:00.018Z,13.80
2023-04-27T02:34:00.020Z,14.20
2023-04-27T02:34:59.984Z,15.10
2023-04-27T02:35:59.973Z,12.80
2023-04-27T02:36:59.985Z,16.50
2023-04-27T02:37:59.919Z,13.10
2023-04-27T02:38:59.979Z,11.20
2023-04-27T02:39:59.910Z,10.40
2023-04-27T02:40:59.931Z,12.70
2023-04-27T02:41:59.897Z,12.20
2023-04-27T02:42:59.973Z,12.50
2023-04-27T02:43:59.928Z,15.30
2023-04-27T02:44:59.960Z,15.80
2023-04-27T02:45:59.924Z,13.10
2023-04-27T02:46:59.959Z,14.40
2023-04-27T02:47:59.880Z,12.60
2023-04-27T02:48:59.824Z,12.80
2023-04-27T02:49:59.865Z,13.40
2023-04-27T02:51:00.152Z,10.80
2023-04-27T02:51:59.864Z,12.00
2023-04-27T02:52:59.791Z,12.80
2023-04-27T02:53:59.815Z,11.10
2023-04-27T02:54:59.802Z,11.80
2023-04-27T02:55:59.782Z,10.80
2023-04-27T02:56:59.728Z,14.40
2023-04-27T02:57:59.812Z,15.00
2023-04-27T02:58:59.864Z,12.50
2023-04-27T02:59:59.774Z,13.60
2023-04-27T03:00:59.760Z,14.20
2023-04-27T03:01:59.743Z,14.10
2023-04-27T03:02:59.857Z,12.30
2023-04-27T03:04:00.020Z,12.60
2023-04-27T03:04:59.684Z,13.70
2023-04-27T03:05:59.696Z,10.90
2023-04-27T03:06:59.687Z,13.20
2023-04-27T03:07:59.723Z,12.10
2023-04-27T03:08:59.753Z,11.30
2023-04-27T03:09:59.686Z,12.40
2023-04-27T03:10:59.610Z,10.70
2023-04-27T03:11:59.709Z,12.00
2023-04-27T03:12:59.633Z,14.20
2023-04-27T03:13:59.594Z,15.30
2023-04-27T03:14:59.575Z,16.60
2023-04-27T03:15:59.751Z,13.40
2023-04-27T03:16:59.720Z,16.70
2023-04-27T03:17:59.881Z,13.50
2023-04-27T03:18:59.582Z,12.80
2023-04-27T03:19:59.506Z,14.60
2023-04-27T03:20:59.598Z,16.70
2023-04-27T03:21:59.837Z,15.60
2023-04-27T03:22:59.629Z,15.10
2023-04-27T03:23:59.496Z,14.00
2023-04-27T03:24:59.520Z,14.70
2023-04-27T03:25:59.575Z,14.10
2023-04-27T03:26:59.618Z,13.10
2023-04-27T03:27:59.516Z,13.70
2023-04-27T03:28:59.441Z,15.10
2023-04-27T03:29:59.382Z,13.90
2023-04-27T03:30:59.551Z,11.20
2023-04-27T03:31:59.820Z,14.70
2023-04-27T03:32:59.519Z,15.30
2023-04-27T03:33:59.321Z,12.00
2023-04-27T03:34:59.321Z,12.40
2023-04-27T03:35:59.405Z,13.40
2023-04-27T03:36:59.408Z,12.20
2023-04-27T03:37:59.571Z,12.00
2023-04-27T03:38:59.265Z,12.40
2023-04-27T03:39:59.820Z,12.80
2023-04-27T03:40:59.464Z,15.90
2023-04-27T03:41:59.402Z,14.30
2023-04-27T03:42:59.342Z,12.30
2023-04-27T03:43:59.206Z,14.40
2023-04-27T03:44:59.215Z,12.50
2023-04-27T03:45:59.303Z,12.60
2023-04-27T03:46:59.540Z,13.40
2023-04-27T03:47:59.235Z,11.70
2023-04-27T03:48:59.170Z,14.30
2023-04-27T03:49:59.172Z,12.50
2023-04-27T03:50:59.247Z,13.80
2023-04-27T03:51:59.139Z,12.30
2023-04-27T03:52:59.224Z,12.90
2023-04-27T03:53:59.103Z,10.80
2023-04-27T03:54:59.165Z,13.80
2023-04-27T03:55:59.572Z,13.40
2023-04-27T03:56:59.140Z,13.50
2023-04-27T03:57:59.092Z,13.70
2023-04-27T03:58:59.100Z,18.00
2023-04-27T03:59:59.078Z,11.70
2023-04-27T04:00:59.037Z,10.80
2023-04-27T04:02:01.137Z,13.10
2023-04-27T04:02:59.145Z,11.90
2023-04-27T04:03:59.239Z,10.20
2023-04-27T04:04:59.175Z,14.30
2023-04-27T04:05:59.035Z,11.40
2023-04-27T04:06:58.989Z,14.00
2023-04-27T04:07:58.977Z,11.50
2023-04-27T04:08:58.974Z,14.60
2023-04-27T04:09:58.971Z,13.50
2023-04-27T04:10:58.937Z,14.90
2023-04-27T04:11:58.913Z,13.30
2023-04-27T04:12:58.998Z,17.30
2023-04-27T04:13:58.898Z,16.80
2023-04-27T04:14:58.911Z,15.80
2023-04-27T04:15:58.925Z,12.60
2023-04-27T04:16:58.885Z,13.70
2023-04-27T04:17:58.934Z,18.80
2023-04-27T04:18:58.857Z,13.50
2023-04-27T04:19:58.850Z,13.20
2023-04-27T04:20:58.847Z,18.40
2023-04-27T04:21:58.867Z,18.20
2023-04-27T04:22:58.821Z,16.70
2023-04-27T04:23:58.820Z,16.60
2023-04-27T04:24:58.816Z,13.80
2023-04-27T04:25:58.787Z,17.30
2023-04-27T04:26:58.824Z,18.70
2023-04-27T04:27:58.743Z,20.40
2023-04-27T04:28:58.773Z,18.10
2023-04-27T04:29:58.765Z,18.10
2023-04-27T04:30:58.780Z,20.60
2023-04-27T04:31:58.714Z,21.70
2023-04-27T04:32:58.761Z,18.60
2023-04-27T04:33:58.759Z,15.30
2023-04-27T04:34:58.722Z,15.60
2023-04-27T04:35:58.693Z,19.10
2023-04-27T04:36:58.707Z,18.40
2023-04-27T04:37:58.649Z,17.10
2023-04-27T04:38:58.680Z,13.70
2023-04-27T04:39:58.635Z,14.80
2023-04-27T04:40:58.657Z,19.80
2023-04-27T04:41:58.624Z,14.90
2023-04-27T04:42:58.740Z,22.60
2023-04-27T04:43:58.589Z,19.40
2023-04-27T04:44:58.618Z,19.80
2023-04-27T04:45:58.603Z,20.40
2023-04-27T04:46:58.586Z,23.80
2023-04-27T04:47:58.679Z,19.30
2023-04-27T04:48:58.590Z,19.30
2023-04-27T04:49:58.549Z,19.40
2023-04-27T04:50:58.589Z,18.20
2023-04-27T04:51:58.558Z,17.80
2023-04-27T04:52:58.498Z,15.60
2023-04-27T04:53:59.834Z,18.00
2023-04-27T04:54:58.485Z,15.60
2023-04-27T04:55:58.486Z,15.20
2023-04-27T04:56:58.506Z,17.10
2023-04-27T04:57:58.493Z,14.00
2023-04-27T04:58:58.454Z,16.30
2023-04-27T04:59:58.427Z,18.80
2023-04-27T05:00:58.413Z,14.70
2023-04-27T05:01:58.483Z,17.60
2023-04-27T05:02:58.542Z,18.70
2023-04-27T05:03:58.605Z,21.50
2023-04-27T05:04:58.506Z,20.10
2023-04-27T05:05:58.361Z,18.60
2023-04-27T05:06:58.373Z,20.90
2023-04-27T05:07:58.387Z,21.00
2023-04-27T05:08:58.361Z,20.40
2023-04-27T05:09:58.333Z,21.50
2023-04-27T05:10:58.346Z,21.00
2023-04-27T05:11:58.335Z,21.60
2023-04-27T05:12:58.351Z,14.80
2023-04-27T05:13:58.298Z,17.40
2023-04-27T05:14:58.283Z,15.60
2023-04-27T05:15:58.343Z,22.10
2023-04-27T05:16:58.262Z,22.30
2023-04-27T05:17:58.270Z,19.60
2023-04-27T05:18:58.250Z,20.20
2023-04-27T05:19:58.236Z,21.40
2023-04-27T05:20:58.260Z,18.10
2023-04-27T05:21:58.260Z,18.40
2023-04-27T05:22:58.267Z,21.50
2023-04-27T05:23:58.191Z,21.00
2023-04-27T05:24:58.232Z,22.60
2023-04-27T05:25:58.196Z,21.20
2023-04-27T05:26:59.249Z,25.20
2023-04-27T05:27:58.152Z,36.10
2023-04-27T05:28:58.642Z,25.70
2023-04-27T05:29:58.164Z,22.90
2023-04-27T05:30:58.173Z,37.30
2023-04-27T05:31:58.411Z,32.00
2023-04-27T05:32:58.157Z,26.20
2023-04-27T05:33:58.100Z,29.50
2023-04-27T05:34:58.145Z,25.10
2023-04-27T05:35:58.081Z,24.80
2023-04-27T05:36:58.064Z,28.20
2023-04-27T05:37:58.058Z,21.60
2023-04-27T05:38:58.071Z,24.80
2023-04-27T05:39:58.026Z,26.10
2023-04-27T05:40:58.017Z,26.20
2023-04-27T05:41:58.077Z,25.20
2023-04-27T05:42:58.016Z,23.70
2023-04-27T05:43:58.023Z,26.00
2023-04-27T05:44:57.988Z,24.80
2023-04-27T05:45:58.018Z,24.10
2023-04-27T05:46:57.959Z,25.90
2023-04-27T05:47:57.988Z,26.50
2023-04-27T05:48:57.949Z,30.20
2023-04-27T05:49:57.951Z,27.50
2023-04-27T05:50:57.930Z,35.50
2023-04-27T05:51:57.916Z,28.40
2023-04-27T05:52:57.940Z,39.60
2023-04-27T05:53:57.920Z,40.80
2023-04-27T05:54:57.908Z,35.40
2023-04-27T05:55:57.887Z,40.70
2023-04-27T05:56:57.878Z,35.50
2023-04-27T05:58:07.054Z,35.40
2023-04-27T05:58:57.946Z,37.10
2023-04-27T05:59:57.831Z,36.70
2023-04-27T06:00:57.908Z,32.50
2023-04-27T06:01:57.893Z,37.40
2023-04-27T06:02:58.029Z,32.90
2023-04-27T06:03:57.871Z,25.20
2023-04-27T06:04:57.824Z,29.50
2023-04-27T06:05:59.069Z,31.20
2023-04-27T06:06:57.761Z,26.60
2023-04-27T06:07:57.732Z,27.30
2023-04-27T06:08:57.740Z,26.70
2023-04-27T06:09:57.733Z,27.40
2023-04-27T06:10:57.773Z,25.60
2023-04-27T06:11:57.708Z,31.10
2023-04-27T06:12:57.722Z,31.50
2023-04-27T06:13:57.692Z,21.90
2023-04-27T06:14:57.723Z,24.10
2023-04-27T06:15:57.724Z,23.70
2023-04-27T06:16:57.701Z,23.00
2023-04-27T06:17:57.652Z,22.80
2023-04-27T06:18:57.625Z,24.60
2023-04-27T06:19:57.644Z,27.40
2023-04-27T06:20:57.620Z,25.00
2023-04-27T06:21:57.605Z,23.80
2023-04-27T06:22:57.586Z,25.20
2023-04-27T06:23:57.618Z,21.10
2023-04-27T06:24:57.603Z,27.60
2023-04-27T06:25:57.590Z,22.60
2023-04-27T06:26:57.576Z,21.90
2023-04-27T06:27:57.794Z,23.00
2023-04-27T06:28:57.597Z,23.30
2023-04-27T06:29:57.541Z,21.10
2023-04-27T06:30:57.577Z,18.10
2023-04-27T06:31:57.578Z,19.90
2023-04-27T06:32:57.523Z,24.80
2023-04-27T06:33:57.495Z,21.50
2023-04-27T06:34:57.500Z,20.30
2023-04-27T06:35:57.453Z,25.70
2023-04-27T06:36:57.483Z,31.20
2023-04-27T06:37:57.425Z,34.60
2023-04-27T06:38:57.431Z,28.10
2023-04-27T06:39:57.425Z,24.00
2023-04-27T06:40:57.434Z,23.80
2023-04-27T06:41:57.466Z,24.00
2023-04-27T06:42:57.429Z,19.90
2023-04-27T06:43:58.697Z,26.50
2023-04-27T06:44:57.367Z,23.90
2023-04-27T06:45:57.365Z,23.10
2023-04-27T06:46:57.373Z,21.50
2023-04-27T06:47:57.381Z,22.80
2023-04-27T06:48:57.322Z,22.50
2023-04-27T06:49:57.321Z,20.90
2023-04-27T06:50:57.301Z,17.70
2023-04-27T06:51:57.316Z,19.60
2023-04-27T06:52:57.280Z,19.60
2023-04-27T06:53:57.303Z,22.80
2023-04-27T06:54:57.278Z,19.80
2023-04-27T06:55:57.239Z,15.20
2023-04-27T06:56:57.308Z,17.10
2023-04-27T06:57:57.324Z,14.10
2023-04-27T06:58:57.236Z,15.80
2023-04-27T06:59:57.223Z,16.30
2023-04-27T07:00:57.179Z,13.20
2023-04-27T07:01:57.281Z,15.50
2023-04-27T07:02:57.238Z,14.70
2023-04-27T07:03:57.331Z,14.30
2023-04-27T07:04:57.280Z,15.60
2023-04-27T07:05:57.202Z,17.40
2023-04-27T07:06:57.638Z,13.70
2023-04-27T07:07:57.119Z,12.00
2023-04-27T07:08:57.175Z,17.20
2023-04-27T07:09:57.092Z,10.90
2023-04-27T07:10:57.156Z,14.10
2023-04-27T07:11:57.080Z,15.30
2023-04-27T07:12:57.083Z,15.20
2023-04-27T07:13:57.134Z,11.60
2023-04-27T07:14:57.102Z,10.50
2023-04-27T07:15:57.109Z,11.80
2023-04-27T07:16:57.061Z,9.60
2023-04-27T07:17:57.095Z,9.10
2023-04-27T07:18:57.055Z,12.10
2023-04-27T07:19:57.028Z,12.60
2023-04-27T07:20:57.005Z,12.30
2023-04-27T07:21:56.973Z,10.80
2023-04-27T07:22:56.982Z,10.10
2023-04-27T07:23:56.953Z,9.20
2023-04-27T07:24:56.971Z,12.20
2023-04-27T07:25:56.938Z,8.30
2023-04-27T07:26:56.947Z,12.80
2023-04-27T07:27:56.976Z,11.30
2023-04-27T07:28:56.910Z,10.50
2023-04-27T07:29:56.933Z,11.50
2023-04-27T07:30:56.924Z,10.50
2023-04-27T07:31:56.920Z,8.80
2023-04-27T07:32:56.912Z,8.50
2023-04-27T07:33:56.851Z,8.20
2023-04-27T07:34:56.837Z,10.20
2023-04-27T07:35:56.870Z,7.40
2023-04-27T07:36:56.808Z,9.00
2023-04-27T07:37:56.812Z,9.90
2023-04-27T07:38:56.785Z,7.00
2023-04-27T07:39:56.809Z,9.20
2023-04-27T07:40:56.790Z,9.40
2023-04-27T07:41:56.784Z,10.00
2023-04-27T07:42:56.736Z,8.80
2023-04-27T07:43:56.757Z,7.20
2023-04-27T07:44:56.725Z,8.30
2023-04-27T07:45:56.813Z,8.80
2023-04-27T07:46:56.738Z,7.60
2023-04-27T07:47:58.774Z,8.20
2023-04-27T07:48:56.718Z,7.20
2023-04-27T07:49:56.691Z,8.90
2023-04-27T07:50:56.651Z,7.60
2023-04-27T07:51:56.659Z,10.80
2023-04-27T07:52:56.660Z,9.00
2023-04-27T07:53:56.680Z,9.60
2023-04-27T07:54:56.624Z,7.90
2023-04-27T07:55:56.694Z,7.20
2023-04-27T07:56:56.585Z,7.40
2023-04-27T07:57:56.733Z,8.10
2023-04-27T07:58:56.622Z,10.80
2023-04-27T07:59:56.567Z,6.00
2023-04-27T08:00:56.574Z,7.40
2023-04-27T08:02:07.001Z,7.30
2023-04-27T08:02:57.053Z,8.30
2023-04-27T08:03:56.822Z,7.30
2023-04-27T08:04:56.900Z,7.00
2023-04-27T08:05:56.673Z,7.40
2023-04-27T08:06:56.705Z,8.20
2023-04-27T08:07:56.555Z,5.50
2023-04-27T08:08:56.477Z,8.10
2023-04-27T08:09:56.463Z,6.40
2023-04-27T08:10:56.501Z,7.60
2023-04-27T08:11:56.462Z,6.30
2023-04-27T08:12:56.499Z,8.40
2023-04-27T08:13:56.453Z,7.20
2023-04-27T08:14:56.417Z,7.00
2023-04-27T08:15:56.438Z,8.40
2023-04-27T08:16:56.547Z,8.90
2023-04-27T08:17:56.437Z,7.40
2023-04-27T08:18:57.991Z,7.80
2023-04-27T08:19:56.357Z,6.70
2023-04-27T08:20:56.349Z,8.40
2023-04-27T08:21:56.346Z,11.40
2023-04-27T08:22:56.329Z,6.90
2023-04-27T08:23:56.424Z,8.40
2023-04-27T08:24:56.388Z,8.50
2023-04-27T08:25:56.318Z,8.50
2023-04-27T08:26:56.311Z,9.80
2023-04-27T08:27:56.323Z,8.60
2023-04-27T08:28:56.255Z,12.70
2023-04-27T08:29:56.291Z,9.00
2023-04-27T08:30:56.323Z,7.70
2023-04-27T08:31:57.030Z,13.80
2023-04-27T08:32:56.282Z,14.90
2023-04-27T08:33:56.250Z,6.20
2023-04-27T08:34:56.199Z,14.00
2023-04-27T08:35:56.271Z,7.40
2023-04-27T08:36:56.229Z,11.80
2023-04-27T08:37:56.206Z,10.80
2023-04-27T08:38:56.194Z,7.70
2023-04-27T08:39:56.183Z,8.60
2023-04-27T08:40:56.167Z,17.30
2023-04-27T08:41:56.144Z,31.30
2023-04-27T08:42:56.143Z,17.40
2023-04-27T08:43:57.351Z,14.00
2023-04-27T08:44:56.129Z,29.80
2023-04-27T08:45:56.116Z,11.40
2023-04-27T08:46:56.072Z,8.80
2023-04-27T08:47:56.119Z,11.30
2023-04-27T08:48:56.148Z,7.50
2023-04-27T08:49:56.086Z,7.80
2023-04-27T08:50:56.030Z,6.80
2023-04-27T08:51:56.042Z,9.80
2023-04-27T08:52:56.053Z,8.70
2023-04-27T08:53:56.014Z,8.60
2023-04-27T08:54:56.050Z,6.70
2023-04-27T08:55:55.990Z,7.20
2023-04-27T08:56:55.966Z,6.10
2023-04-27T08:57:56.021Z,10.10
2023-04-27T08:58:55.972Z,9.60
2023-04-27T08:59:56.060Z,7.70
2023-04-27T09:00:56.006Z,7.90
2023-04-27T09:01:56.028Z,7.40
2023-04-27T09:02:56.108Z,8.00
2023-04-27T09:03:56.291Z,8.10
2023-04-27T09:04:56.097Z,7.40
2023-04-27T09:06:04.334Z,7.80
2023-04-27T09:06:55.855Z,12.60
2023-04-27T09:07:55.949Z,6.40
2023-04-27T09:08:55.852Z,6.00
2023-04-27T09:09:55.858Z,8.20
2023-04-27T09:10:55.834Z,6.90
2023-04-27T09:11:55.863Z,6.70
2023-04-27T09:12:55.864Z,4.40
2023-04-27T09:13:55.812Z,4.80
2023-04-27T09:14:55.786Z,7.50
2023-04-27T09:15:55.786Z,5.60
2023-04-27T09:16:55.791Z,6.40
2023-04-27T09:17:55.813Z,5.80
2023-04-27T09:18:55.749Z,4.30
2023-04-27T09:19:55.748Z,5.00
2023-04-27T09:20:55.697Z,6.10
2023-04-27T09:21:55.741Z,6.20
2023-04-27T09:22:55.721Z,5.10
2023-04-27T09:23:55.678Z,5.40
2023-04-27T09:24:55.937Z,5.60
2023-04-27T09:25:55.912Z,5.20
2023-04-27T09:26:55.668Z,4.90
2023-04-27T09:27:55.646Z,4.70
2023-04-27T09:28:55.713Z,5.10
2023-04-27T09:29:55.618Z,4.80
2023-04-27T09:30:55.599Z,3.70
2023-04-27T09:31:55.639Z,4.80
2023-04-27T09:32:55.624Z,4.70
2023-04-27T09:33:55.580Z,4.50
2023-04-27T09:34:55.549Z,8.10
2023-04-27T09:35:55.577Z,7.90
2023-04-27T09:36:55.585Z,7.00
2023-04-27T09:37:55.575Z,6.90
2023-04-27T09:38:55.529Z,4.90
2023-04-27T09:39:55.524Z,5.90
2023-04-27T09:40:55.509Z,4.20
2023-04-27T09:41:55.517Z,4.60
2023-04-27T09:42:55.487Z,6.00
2023-04-27T09:43:57.685Z,4.80
2023-04-27T09:44:55.484Z,7.30
2023-04-27T09:45:55.483Z,4.50
2023-04-27T09:46:55.450Z,4.90
2023-04-27T09:47:55.492Z,5.20
2023-04-27T09:48:55.408Z,8.50
2023-04-27T09:49:55.582Z,5.40
2023-04-27T09:50:56.153Z,7.80
2023-04-27T09:51:55.570Z,5.00
2023-04-27T09:52:55.475Z,5.20
2023-04-27T09:53:55.455Z,9.90
2023-04-27T09:54:55.397Z,5.40
2023-04-27T09:55:55.361Z,5.90
2023-04-27T09:56:55.375Z,4.50
2023-04-27T09:57:55.312Z,4.30
2023-04-27T09:58:55.343Z,3.90
2023-04-27T09:59:55.300Z,5.30
2023-04-27T10:00:55.349Z,5.80
2023-04-27T10:01:55.299Z,5.90
2023-04-27T10:02:55.340Z,5.30
2023-04-27T10:03:55.427Z,6.10
2023-04-27T10:04:55.391Z,6.00
2023-04-27T10:05:55.260Z,5.60
2023-04-27T10:06:57.218Z,5.40
2023-04-27T10:07:55.228Z,6.00
2023-04-27T10:08:55.213Z,5.40
2023-04-27T10:09:55.219Z,7.50
2023-04-27T10:10:55.181Z,7.40
2023-04-27T10:11:55.191Z,5.10
2023-04-27T10:12:55.164Z,6.30
2023-04-27T10:13:55.331Z,4.90
2023-04-27T10:14:55.156Z,6.30
2023-04-27T10:15:55.126Z,6.20
2023-04-27T10:16:55.125Z,6.30
2023-04-27T10:17:55.155Z,7.00
2023-04-27T10:18:55.103Z,7.40
2023-04-27T10:19:57.379Z,5.20
2023-04-27T10:20:55.137Z,6.00
2023-04-27T10:21:55.131Z,6.40
2023-04-27T10:22:55.146Z,5.80
2023-04-27T10:23:55.095Z,4.90
2023-04-27T10:24:55.043Z,8.10
2023-04-27T10:25:55.037Z,6.40
2023-04-27T10:26:55.029Z,8.10
2023-04-27T10:27:55.038Z,7.40
2023-04-27T10:28:54.993Z,6.30
2023-04-27T10:29:54.998Z,5.60
2023-04-27T10:30:54.987Z,7.90
2023-04-27T10:31:54.987Z,9.20
2023-04-27T10:32:55.032Z,7.30
2023-04-27T10:33:54.956Z,7.20
2023-04-27T10:34:54.953Z,7.00
2023-04-27T10:35:54.946Z,5.50
2023-04-27T10:36:54.920Z,14.90
2023-04-27T10:37:54.927Z,7.10
2023-04-27T10:38:54.875Z,5.30
2023-04-27T10:39:55.068Z,6.00
2023-04-27T10:40:54.907Z,5.50
2023-04-27T10:41:54.880Z,8.10
2023-04-27T10:42:54.861Z,6.80
2023-04-27T10:43:54.854Z,8.00
2023-04-27T10:44:54.830Z,5.70
2023-04-27T10:45:54.838Z,7.70
2023-04-27T10:46:55.044Z,6.60
2023-04-27T10:47:54.829Z,7.90
2023-04-27T10:48:55.409Z,6.10
2023-04-27T10:49:55.842Z,5.10
2023-04-27T10:50:55.093Z,7.00
2023-04-27T10:51:54.780Z,8.30
2023-04-27T10:52:54.820Z,6.80
2023-04-27T10:53:54.730Z,8.10
2023-04-27T10:54:54.709Z,5.70
2023-04-27T10:55:54.720Z,6.50
2023-04-27T10:56:54.707Z,6.50
2023-04-27T10:57:54.722Z,7.40
2023-04-27T10:58:54.675Z,7.60
2023-04-27T10:59:54.692Z,7.30
2023-04-27T11:00:54.657Z,7.40
2023-04-27T11:01:54.711Z,8.20
2023-04-27T11:02:54.762Z,6.10
2023-04-27T11:03:54.659Z,5.70
2023-04-27T11:04:54.655Z,8.50
2023-04-27T11:05:55.186Z,6.60
2023-04-27T11:06:54.591Z,6.80
2023-04-27T11:07:54.580Z,7.50
2023-04-27T11:08:54.555Z,7.60
2023-04-27T11:09:54.600Z,6.30
2023-04-27T11:10:54.613Z,7.50
2023-04-27T11:11:54.538Z,6.70
2023-04-27T11:12:54.537Z,6.00
2023-04-27T11:13:54.593Z,6.60
2023-04-27T11:14:54.498Z,7.30
2023-04-27T11:15:54.545Z,9.00
2023-04-27T11:16:54.472Z,5.90
2023-04-27T11:17:54.523Z,6.20
2023-04-27T11:18:54.489Z,6.60
2023-04-27T11:19:54.460Z,6.00
2023-04-27T11:20:54.538Z,15.90
2023-04-27T11:21:54.430Z,41.00
2023-04-27T11:22:54.415Z,73.20
2023-04-27T11:23:54.435Z,27.60
2023-04-27T11:24:54.390Z,10.80
2023-04-27T11:25:54.433Z,8.40
2023-04-27T11:26:54.384Z,8.60
2023-04-27T11:27:54.453Z,7.90
2023-04-27T11:28:54.365Z,5.60
2023-04-27T11:29:54.342Z,8.50
2023-04-27T11:30:54.363Z,7.20
2023-04-27T11:31:54.331Z,5.90
2023-04-27T11:32:54.330Z,8.60
2023-04-27T11:33:56.096Z,8.10
2023-04-27T11:34:55.527Z,7.60
2023-04-27T11:35:54.293Z,6.00
2023-04-27T11:36:58.662Z,5.80
2023-04-27T11:37:54.331Z,7.30
2023-04-27T11:38:54.320Z,5.60
2023-04-27T11:39:54.242Z,7.30
2023-04-27T11:40:54.295Z,7.10
2023-04-27T11:41:54.202Z,6.10
2023-04-27T11:42:54.237Z,6.20
2023-04-27T11:43:54.201Z,8.20
2023-04-27T11:44:54.203Z,9.60
2023-04-27T11:45:54.169Z,6.70
2023-04-27T11:46:54.206Z,7.10
2023-04-27T11:47:54.217Z,7.70
2023-04-27T11:48:54.136Z,5.50
2023-04-27T11:49:54.117Z,7.00
2023-04-27T11:50:54.128Z,6.10
2023-04-27T11:51:54.127Z,9.20
2023-04-27T11:52:54.118Z,7.70
2023-04-27T11:53:54.075Z,5.40
2023-04-27T11:54:54.065Z,5.50
2023-04-27T11:55:54.073Z,7.00
2023-04-27T11:56:54.059Z,8.00
2023-04-27T11:57:54.052Z,5.60
2023-04-27T11:58:54.033Z,6.10
2023-04-27T11:59:54.143Z,6.80
2023-04-27T12:00:54.007Z,6.90
2023-04-27T12:01:54.013Z,6.40
2023-04-27T12:02:54.299Z,4.80
2023-04-27T12:03:54.121Z,8.80
2023-04-27T12:04:54.181Z,9.80
2023-04-27T12:05:54.041Z,7.80
2023-04-27T12:06:53.942Z,7.00
2023-04-27T12:07:53.925Z,7.00
2023-04-27T12:08:53.919Z,6.80
2023-04-27T12:09:53.933Z,7.20
2023-04-27T12:10:53.952Z,6.20
2023-04-27T12:11:53.889Z,8.30
2023-04-27T12:12:53.885Z,6.90
2023-04-27T12:13:53.847Z,5.30
2023-04-27T12:14:53.872Z,5.90
2023-04-27T12:15:53.859Z,8.70
2023-04-27T12:16:53.946Z,8.00
2023-04-27T12:17:53.833Z,7.80
2023-04-27T12:18:53.803Z,6.50
2023-04-27T12:19:53.791Z,5.70
2023-04-27T12:20:53.830Z,7.00
2023-04-27T12:21:53.761Z,7.00
2023-04-27T12:22:53.770Z,8.90
2023-04-27T12:23:53.761Z,7.40
2023-04-27T12:24:53.743Z,7.90
2023-04-27T12:25:53.730Z,7.30
2023-04-27T12:26:53.734Z,9.10
2023-04-27T12:27:53.705Z,6.60
2023-04-27T12:28:53.732Z,6.40
2023-04-27T12:29:53.684Z,6.70
2023-04-27T12:30:53.756Z,8.90
2023-04-27T12:31:53.658Z,5.90
2023-04-27T12:32:53.722Z,5.90
2023-04-27T12:33:53.659Z,6.00
2023-04-27T12:34:53.651Z,8.00
2023-04-27T12:35:53.628Z,6.40
2023-04-27T12:36:53.610Z,7.70
2023-04-27T12:37:53.603Z,5.70
2023-04-27T12:38:53.632Z,9.10
2023-04-27T12:39:53.613Z,9.20
2023-04-27T12:40:53.571Z,6.90
2023-04-27T12:41:53.574Z,8.70
2023-04-27T12:42:53.545Z,5.80
2023-04-27T12:43:53.539Z,8.20
2023-04-27T12:44:53.533Z,7.90
2023-04-27T12:45:53.522Z,6.50
2023-04-27T12:46:53.566Z,7.10
2023-04-27T12:48:02.676Z,5.90
2023-04-27T12:48:53.566Z,7.90
2023-04-27T12:49:53.496Z,7.10
2023-04-27T12:50:53.482Z,6.10
2023-04-27T12:51:53.472Z,9.90
2023-04-27T12:52:53.470Z,10.10
2023-04-27T12:53:53.460Z,7.80
2023-04-27T12:54:53.439Z,7.10
2023-04-27T12:55:53.417Z,32.60
2023-04-27T12:56:53.428Z,59.10
2023-04-27T12:57:53.386Z,19.60
2023-04-27T12:58:53.430Z,17.40
2023-04-27T12:59:53.370Z,10.80
2023-04-27T13:00:53.366Z,7.00
2023-04-27T13:01:53.433Z,6.60
2023-04-27T13:02:53.545Z,5.90